createdAt,value
2023-05-14T00:00:25.662Z,34.72
2023-05-14T00:02:52.722Z,34.77
2023-05-14T00:05:19.636Z,35.15
2023-05-14T00:07:46.467Z,35.59
2023-05-14T00:10:13.343Z,35.83
2023-05-14T00:12:40.229Z,35.98
2023-05-14T00:15:08.877Z,35.60
2023-05-14T00:17:37.457Z,35.91
2023-05-14T00:20:07.166Z,36.32
2023-05-14T00:22:34.281Z,36.55
2023-05-14T00:25:01.129Z,36.30
2023-05-14T00:27:28.125Z,36.42
2023-05-14T00:29:55.001Z,36.59
2023-05-14T00:32:21.864Z,36.75
2023-05-14T00:34:50.063Z,37.05
2023-05-14T00:37:17.005Z,37.28
2023-05-14T00:39:43.895Z,37.20
2023-05-14T00:42:10.778Z,37.50
2023-05-14T00:44:37.671Z,37.19
2023-05-14T00:47:05.745Z,37.14
2023-05-14T00:49:32.810Z,37.10
2023-05-14T00:52:01.122Z,37.56
2023-05-14T00:54:29.449Z,37.64
2023-05-14T00:56:56.849Z,37.68
2023-05-14T00:59:23.759Z,37.98
2023-05-14T01:01:50.992Z,38.08
2023-05-14T01:04:18.647Z,37.93
2023-05-14T01:06:57.563Z,38.34
2023-05-14T01:09:36.227Z,38.50
2023-05-14T01:12:09.502Z,38.65
2023-05-14T01:14:45.377Z,39.08
2023-05-14T01:17:13.356Z,38.85
2023-05-14T01:19:43.007Z,38.89
2023-05-14T01:22:12.357Z,39.10
2023-05-14T01:24:40.183Z,39.34
2023-05-14T01:27:15.720Z,39.23
2023-05-14T01:29:53.141Z,39.60
2023-05-14T01:32:24.468Z,39.55
2023-05-14T01:34:55.214Z,39.66
2023-05-14T01:37:25.892Z,39.43
2023-05-14T01:39:55.429Z,39.65
2023-05-14T01:42:23.211Z,39.60
2023-05-14T01:44:50.440Z,39.72
2023-05-14T01:47:17.491Z,39.83
2023-05-14T01:49:44.321Z,39.99
2023-05-14T01:52:11.989Z,39.80
2023-05-14T01:54:40.258Z,40.01
2023-05-14T01:57:07.110Z,40.22
2023-05-14T01:59:33.949Z,40.31
2023-05-14T02:02:01.009Z,40.52
2023-05-14T02:04:28.056Z,40.79
2023-05-14T02:06:54.900Z,40.53
2023-05-14T02:09:21.811Z,40.62
2023-05-14T02:11:49.997Z,40.78
2023-05-14T02:14:16.842Z,40.91
2023-05-14T02:16:43.692Z,40.81
2023-05-14T02:19:11.091Z,40.65
2023-05-14T02:21:37.999Z,40.38
2023-05-14T02:24:05.442Z,40.40
2023-05-14T02:26:32.294Z,40.21
2023-05-14T02:29:00.550Z,40.44
2023-05-14T02:31:27.449Z,40.47
2023-05-14T02:33:54.412Z,40.48
2023-05-14T02:36:21.298Z,40.85
2023-05-14T02:38:48.145Z,40.99
2023-05-14T02:41:14.985Z,41.33
2023-05-14T02:43:41.832Z,41.29
2023-05-14T02:46:10.005Z,41.44
2023-05-14T02:48:36.851Z,41.68
2023-05-14T02:51:03.875Z,41.52
2023-05-14T02:53:30.869Z,41.85
2023-05-14T02:55:57.786Z,41.99
2023-05-14T02:58:27.733Z,41.99
2023-05-14T03:00:55.709Z,42.13
2023-05-14T03:03:24.590Z,42.41
2023-05-14T03:05:52.069Z,42.77
2023-05-14T03:08:18.944Z,42.76
2023-05-14T03:10:45.863Z,42.73
2023-05-14T03:13:12.810Z,42.68
2023-05-14T03:15:39.624Z,42.65
2023-05-14T03:18:06.627Z,42.74
2023-05-14T03:20:34.894Z,42.61
2023-05-14T03:23:01.872Z,42.59
2023-05-14T03:25:28.708Z,42.71
2023-05-14T03:27:55.572Z,43.01
2023-05-14T03:30:22.833Z,42.96
2023-05-14T03:32:50.326Z,42.71
2023-05-14T03:35:17.762Z,43.30
2023-05-14T03:37:45.899Z,42.88
2023-05-14T03:40:13.190Z,43.13
2023-05-14T03:42:40.019Z,42.99
2023-05-14T03:45:09.177Z,43.15
2023-05-14T03:47:36.082Z,43.03
2023-05-14T03:50:03.438Z,43.18
2023-05-14T03:52:30.635Z,43.13
2023-05-14T03:54:58.835Z,43.12
2023-05-14T03:57:25.711Z,43.32
2023-05-14T03:59:52.578Z,43.31
2023-05-14T04:02:19.478Z,43.34
2023-05-14T04:04:46.366Z,43.36
2023-05-14T04:07:13.238Z,43.22
2023-05-14T04:09:40.261Z,42.96
2023-05-14T04:12:09.473Z,43.07
2023-05-14T04:14:36.291Z,42.91
2023-05-14T04:17:03.740Z,42.81
2023-05-14T04:19:30.632Z,42.73
2023-05-14T04:21:57.486Z,42.60
2023-05-14T04:24:24.360Z,42.71
2023-05-14T04:26:51.209Z,42.84
2023-05-14T04:29:19.403Z,42.74
2023-05-14T04:31:46.640Z,42.26
2023-05-14T04:34:13.590Z,42.56
2023-05-14T04:36:40.819Z,42.44
2023-05-14T04:39:09.315Z,42.28
2023-05-14T04:41:36.700Z,42.37
2023-05-14T04:44:03.865Z,42.23
2023-05-14T04:46:32.074Z,42.33
2023-05-14T04:48:58.933Z,42.37
2023-05-14T04:51:26.246Z,42.19
2023-05-14T04:53:53.058Z,41.93
2023-05-14T04:56:19.996Z,41.67
2023-05-14T04:58:46.875Z,41.58
2023-05-14T05:01:13.889Z,41.45
2023-05-14T05:03:42.194Z,41.41
2023-05-14T05:06:09.172Z,41.47
2023-05-14T05:08:36.910Z,40.99
2023-05-14T05:11:04.453Z,40.98
2023-05-14T05:13:32.170Z,40.99
2023-05-14T05:15:59.156Z,40.61
2023-05-14T05:18:26.209Z,40.84
2023-05-14T05:20:54.528Z,40.86
2023-05-14T05:23:21.345Z,40.51
2023-05-14T05:25:48.227Z,40.63
2023-05-14T05:28:15.101Z,40.52
2023-05-14T05:30:42.025Z,40.38
2023-05-14T05:33:08.969Z,40.92
2023-05-14T05:35:35.853Z,40.74
2023-05-14T05:38:04.065Z,40.88
2023-05-14T05:40:30.963Z,41.14
2023-05-14T05:42:57.781Z,40.79
2023-05-14T05:45:24.673Z,40.84
2023-05-14T05:47:51.640Z,41.08
2023-05-14T05:50:19.996Z,41.24
2023-05-14T05:52:47.141Z,41.11
2023-05-14T05:55:15.625Z,41.27
2023-05-14T05:57:42.613Z,41.46
2023-05-14T06:00:13.510Z,40.86
2023-05-14T06:02:41.700Z,41.28
2023-05-14T06:05:10.432Z,40.91
2023-05-14T06:07:37.469Z,41.55
2023-05-14T06:10:06.330Z,40.65
2023-05-14T06:12:34.500Z,40.98
2023-05-14T06:15:01.341Z,40.94
2023-05-14T06:17:28.258Z,40.86
2023-05-14T06:19:55.156Z,40.68
2023-05-14T06:22:22.001Z,40.72
2023-05-14T06:24:49.077Z,40.64
2023-05-14T06:27:15.922Z,40.79
2023-05-14T06:29:44.067Z,40.38
2023-05-14T06:32:11.799Z,40.72
2023-05-14T06:34:38.665Z,40.79
2023-05-14T06:37:06.912Z,40.57
2023-05-14T06:39:33.815Z,39.93
2023-05-14T06:42:00.701Z,40.36
2023-05-14T06:44:27.733Z,40.04
2023-05-14T06:46:56.336Z,39.66
2023-05-14T06:49:23.332Z,39.22
2023-05-14T06:51:50.162Z,39.53
2023-05-14T06:54:17.091Z,39.52
2023-05-14T06:56:45.185Z,39.20
2023-05-14T06:59:12.097Z,39.40
2023-05-14T07:01:38.990Z,39.59
2023-05-14T07:04:07.359Z,39.73
2023-05-14T07:06:34.397Z,39.51
2023-05-14T07:09:02.351Z,39.61
2023-05-14T07:11:29.645Z,39.63
2023-05-14T07:13:56.498Z,39.67
2023-05-14T07:16:23.362Z,38.96
2023-05-14T07:18:50.231Z,39.12
2023-05-14T07:21:18.511Z,38.92
2023-05-14T07:23:45.585Z,38.70
2023-05-14T07:26:12.525Z,38.49
2023-05-14T07:28:39.375Z,38.39
2023-05-14T07:31:08.913Z,38.26
2023-05-14T07:33:36.535Z,38.03
2023-05-14T07:36:03.751Z,37.78
2023-05-14T07:38:32.608Z,37.31
2023-05-14T07:40:59.523Z,36.72
2023-05-14T07:43:26.868Z,36.84
2023-05-14T07:45:53.779Z,36.47
2023-05-14T07:48:20.730Z,36.55
2023-05-14T07:50:48.806Z,36.27
2023-05-14T07:53:15.736Z,36.10
2023-05-14T07:55:45.262Z,35.86
2023-05-14T07:58:12.122Z,35.25
2023-05-14T08:00:39.057Z,34.12
2023-05-14T08:03:06.072Z,33.62
2023-05-14T08:05:33.081Z,32.15
2023-05-14T08:07:59.938Z,31.16
2023-05-14T08:10:27.583Z,29.43
2023-05-14T08:12:56.100Z,28.68
2023-05-14T08:15:24.540Z,28.27
2023-05-14T08:17:53.367Z,27.25
2023-05-14T08:20:20.548Z,26.62
2023-05-14T08:22:47.441Z,25.62
2023-05-14T08:25:14.429Z,25.89
2023-05-14T08:27:41.362Z,25.74
2023-05-14T08:30:11.052Z,26.02
2023-05-14T08:32:38.571Z,26.14
2023-05-14T08:35:06.748Z,25.77
2023-05-14T08:37:33.712Z,25.32
2023-05-14T08:40:00.712Z,24.92
2023-05-14T08:42:29.279Z,23.36
2023-05-14T08:45:01.982Z,22.78
2023-05-14T08:47:31.518Z,22.59
2023-05-14T08:50:06.452Z,22.98
2023-05-14T08:52:34.801Z,22.69
2023-05-14T08:55:05.507Z,22.15
2023-05-14T08:57:34.267Z,21.44
2023-05-14T09:00:02.311Z,20.90
2023-05-14T09:02:32.304Z,20.32
2023-05-14T09:05:01.917Z,19.09
2023-05-14T09:07:29.056Z,18.87
2023-05-14T09:09:56.049Z,19.30
2023-05-14T09:12:23.110Z,19.57
2023-05-14T09:14:51.014Z,19.97
2023-05-14T09:17:18.619Z,20.62
2023-05-14T09:19:49.131Z,20.36
2023-05-14T09:22:19.778Z,20.56
2023-05-14T09:25:02.447Z,20.15
2023-05-14T09:27:31.627Z,20.02
2023-05-14T09:30:09.386Z,18.83
2023-05-14T09:32:38.302Z,18.97
2023-05-14T09:35:17.402Z,19.02
2023-05-14T09:37:46.609Z,19.67
2023-05-14T09:40:15.174Z,19.69
2023-05-14T09:42:42.307Z,19.29
2023-05-14T09:45:10.451Z,19.18
2023-05-14T09:47:38.449Z,18.90
2023-05-14T09:50:08.302Z,17.48
2023-05-14T09:52:38.292Z,17.22
2023-05-14T09:55:06.882Z,17.21
2023-05-14T09:57:34.448Z,16.87
2023-05-14T10:00:01.386Z,17.03
2023-05-14T10:02:37.430Z,17.79
2023-05-14T10:05:06.887Z,18.51
2023-05-14T10:07:42.482Z,18.68
2023-05-14T10:10:15.786Z,19.48
2023-05-14T10:12:52.377Z,19.84
2023-05-14T10:15:26.630Z,21.29
2023-05-14T10:17:58.172Z,21.71
2023-05-14T10:20:27.581Z,22.71
2023-05-14T10:22:58.645Z,23.82
2023-05-14T10:25:26.314Z,23.63
2023-05-14T10:27:54.210Z,24.03
2023-05-14T10:30:25.306Z,24.13
2023-05-14T10:33:08.034Z,24.66
2023-05-14T10:35:57.814Z,24.75
2023-05-14T10:38:28.863Z,24.61
2023-05-14T10:41:00.614Z,24.22
2023-05-14T10:43:30.707Z,23.57
2023-05-14T10:46:00.418Z,22.87
2023-05-14T10:48:27.665Z,22.86
2023-05-14T10:50:57.546Z,21.99
2023-05-14T10:53:34.587Z,22.40
2023-05-14T10:56:07.699Z,23.01
2023-05-14T10:58:39.290Z,23.37
2023-05-14T11:01:07.602Z,23.55
2023-05-14T11:03:41.926Z,23.59
2023-05-14T11:06:10.694Z,23.93
2023-05-14T11:08:39.716Z,23.74
2023-05-14T11:11:06.995Z,23.73
2023-05-14T11:13:34.567Z,23.36
2023-05-14T11:16:12.003Z,23.87
2023-05-14T11:18:48.427Z,24.03
2023-05-14T11:21:17.459Z,24.28
2023-05-14T11:23:48.625Z,24.14
2023-05-14T11:26:15.653Z,23.55
2023-05-14T11:28:42.641Z,23.71
2023-05-14T11:31:10.230Z,23.75
2023-05-14T11:33:37.380Z,23.55
2023-05-14T11:36:05.407Z,23.75
2023-05-14T11:38:32.305Z,23.23
2023-05-14T11:41:00.527Z,23.35
2023-05-14T11:43:29.159Z,23.74
2023-05-14T11:45:56.527Z,24.36
2023-05-14T11:48:25.284Z,24.35
2023-05-14T11:50:53.220Z,24.78
2023-05-14T11:53:24.512Z,24.34
2023-05-14T11:55:54.079Z,25.01
2023-05-14T11:58:22.423Z,24.36
2023-05-14T12:00:50.890Z,23.57
2023-05-14T12:03:25.699Z,22.99
2023-05-14T12:05:57.048Z,23.09
2023-05-14T12:08:27.626Z,22.15
2023-05-14T12:10:55.985Z,21.87
2023-05-14T12:13:27.121Z,21.79
2023-05-14T12:15:56.487Z,22.18
2023-05-14T12:18:25.573Z,22.06
2023-05-14T12:20:52.541Z,22.05
2023-05-14T12:23:25.981Z,22.15
2023-05-14T12:25:53.067Z,22.25
2023-05-14T12:28:20.478Z,21.95
2023-05-14T12:30:49.347Z,22.45
2023-05-14T12:33:16.220Z,22.20
2023-05-14T12:35:43.388Z,22.22
2023-05-14T12:38:10.617Z,21.78
2023-05-14T12:40:37.537Z,21.81
2023-05-14T12:43:04.367Z,21.78
2023-05-14T12:45:31.621Z,21.13
2023-05-14T12:47:59.876Z,20.58
2023-05-14T12:50:27.072Z,20.22
2023-05-14T12:52:54.121Z,20.50
2023-05-14T12:55:21.420Z,20.81
2023-05-14T12:57:48.328Z,20.28
2023-05-14T13:00:15.945Z,19.60
2023-05-14T13:02:43.978Z,20.46
2023-05-14T13:05:12.742Z,20.10
2023-05-14T13:07:39.992Z,19.53
2023-05-14T13:10:08.390Z,19.57
2023-05-14T13:12:35.439Z,19.74
2023-05-14T13:15:02.479Z,19.51
2023-05-14T13:17:31.615Z,19.46
2023-05-14T13:19:58.494Z,19.76
2023-05-14T13:22:26.774Z,19.75
2023-05-14T13:24:53.678Z,19.76
2023-05-14T13:27:20.672Z,18.98
2023-05-14T13:29:47.519Z,18.60
2023-05-14T13:32:14.342Z,18.27
2023-05-14T13:34:41.166Z,17.84
2023-05-14T13:37:08.070Z,17.97
2023-05-14T13:39:36.232Z,18.20
2023-05-14T13:42:03.478Z,18.03
2023-05-14T13:44:30.451Z,18.08
2023-05-14T13:46:57.480Z,18.44
2023-05-14T13:49:24.342Z,18.81
2023-05-14T13:51:51.187Z,18.71
2023-05-14T13:54:18.409Z,19.34
2023-05-14T13:56:46.582Z,19.35
2023-05-14T13:59:13.612Z,19.83
2023-05-14T14:01:40.553Z,19.03
2023-05-14T14:04:07.516Z,19.28
2023-05-14T14:06:34.475Z,18.83
2023-05-14T14:09:01.716Z,19.01
2023-05-14T14:11:28.786Z,19.38
2023-05-14T14:13:56.925Z,19.84
2023-05-14T14:16:23.799Z,20.35
2023-05-14T14:18:50.694Z,20.72
2023-05-14T14:21:18.396Z,20.54
2023-05-14T14:23:46.581Z,21.29
2023-05-14T14:26:13.537Z,21.00
2023-05-14T14:28:40.513Z,22.07
2023-05-14T14:31:08.881Z,21.96
2023-05-14T14:33:35.873Z,22.12
2023-05-14T14:36:02.770Z,22.18
2023-05-14T14:38:29.698Z,22.58
2023-05-14T14:40:57.450Z,22.52
2023-05-14T14:43:24.700Z,22.90
2023-05-14T14:45:51.587Z,22.90
2023-05-14T14:48:28.505Z,22.87
2023-05-14T14:50:55.796Z,23.17
2023-05-14T14:53:24.402Z,23.04
2023-05-14T14:55:52.063Z,23.45
2023-05-14T14:58:20.313Z,23.52
2023-05-14T15:00:48.261Z,23.35
2023-05-14T15:03:15.674Z,23.26
2023-05-14T15:05:43.977Z,23.50
2023-05-14T15:08:11.058Z,24.02
2023-05-14T15:10:38.455Z,23.74
2023-05-14T15:13:07.460Z,23.84
2023-05-14T15:15:36.021Z,24.13
2023-05-14T15:18:04.372Z,24.13
2023-05-14T15:20:31.418Z,24.12
2023-05-14T15:22:59.707Z,24.19
2023-05-14T15:25:27.235Z,24.00
2023-05-14T15:27:54.139Z,24.10
2023-05-14T15:30:21.050Z,24.23
2023-05-14T15:32:48.241Z,24.16
2023-05-14T15:35:15.519Z,24.22
2023-05-14T15:37:44.673Z,24.08
2023-05-14T15:40:13.461Z,23.86
2023-05-14T15:42:43.435Z,24.09
2023-05-14T15:45:12.929Z,24.17
2023-05-14T15:47:41.008Z,24.46
2023-05-14T15:50:09.136Z,24.73
2023-05-14T15:52:36.420Z,24.66
2023-05-14T15:55:05.949Z,24.61
2023-05-14T15:57:34.285Z,24.51
2023-05-14T16:00:01.239Z,24.30
2023-05-14T16:02:30.366Z,24.41
2023-05-14T16:04:57.394Z,24.32
2023-05-14T16:07:24.323Z,24.19
2023-05-14T16:09:51.687Z,24.00
2023-05-14T16:12:18.657Z,23.76
2023-05-14T16:14:46.928Z,24.08
2023-05-14T16:17:14.064Z,23.88
2023-05-14T16:19:41.281Z,24.09
2023-05-14T16:22:08.300Z,24.18
2023-05-14T16:24:35.198Z,24.06
2023-05-14T16:27:02.127Z,24.40
2023-05-14T16:29:29.076Z,24.48
2023-05-14T16:31:58.268Z,25.05
2023-05-14T16:34:25.161Z,25.97
2023-05-14T16:36:52.070Z,25.96
2023-05-14T16:39:19.274Z,25.73
2023-05-14T16:41:46.125Z,25.54
2023-05-14T16:44:12.975Z,26.34
2023-05-14T16:46:39.917Z,26.91
2023-05-14T16:49:08.172Z,28.23
2023-05-14T16:51:36.450Z,29.03
2023-05-14T16:54:04.007Z,28.45
2023-05-14T16:56:32.290Z,28.98
2023-05-14T16:58:59.171Z,28.53
2023-05-14T17:01:26.123Z,28.95
2023-05-14T17:03:52.954Z,29.47
2023-05-14T17:06:21.154Z,28.91
2023-05-14T17:08:48.164Z,29.16
2023-05-14T17:11:15.175Z,28.85
2023-05-14T17:13:42.234Z,27.90
2023-05-14T17:16:09.097Z,28.44
2023-05-14T17:18:36.079Z,28.26
2023-05-14T17:21:04.733Z,28.40
2023-05-14T17:23:33.031Z,28.60
2023-05-14T17:25:59.929Z,29.02
2023-05-14T17:28:28.306Z,28.80
2023-05-14T17:30:55.338Z,28.36
2023-05-14T17:33:22.511Z,28.53
2023-05-14T17:35:49.547Z,28.55
2023-05-14T17:38:17.082Z,29.02
2023-05-14T17:40:45.291Z,28.50
2023-05-14T17:43:12.426Z,28.51
2023-05-14T17:45:53.320Z,28.97
2023-05-14T17:48:22.187Z,29.17
2023-05-14T17:50:49.127Z,28.73
2023-05-14T17:53:16.008Z,29.22
2023-05-14T17:55:45.460Z,28.41
2023-05-14T17:58:15.815Z,28.93
2023-05-14T18:00:43.542Z,28.65
2023-05-14T18:03:11.145Z,28.85
2023-05-14T18:05:38.077Z,30.11
2023-05-14T18:08:05.613Z,30.02
2023-05-14T18:10:32.683Z,30.42
2023-05-14T18:12:59.634Z,31.28
2023-05-14T18:15:27.940Z,31.21
2023-05-14T18:17:55.018Z,30.79
2023-05-14T18:20:22.050Z,31.32
2023-05-14T18:22:50.456Z,30.67
2023-05-14T18:25:17.502Z,30.95
2023-05-14T18:27:45.233Z,31.39
2023-05-14T18:30:16.652Z,31.50
2023-05-14T18:32:45.205Z,31.19
2023-05-14T18:35:13.561Z,31.41
2023-05-14T18:37:40.898Z,31.24
2023-05-14T18:40:09.350Z,31.23
2023-05-14T18:42:36.362Z,31.41
2023-05-14T18:45:04.039Z,31.64
2023-05-14T18:47:32.335Z,31.92
2023-05-14T18:50:01.908Z,32.01
2023-05-14T18:52:29.815Z,32.44
2023-05-14T18:54:56.760Z,32.59
2023-05-14T18:57:23.933Z,32.84
2023-05-14T18:59:50.828Z,33.11
2023-05-14T19:02:17.805Z,33.19
2023-05-14T19:04:52.193Z,33.33
2023-05-14T19:07:22.125Z,33.41
2023-05-14T19:09:49.214Z,33.50
2023-05-14T19:12:16.343Z,33.84
2023-05-14T19:14:43.303Z,33.76
2023-05-14T19:17:10.914Z,34.16
2023-05-14T19:19:39.139Z,34.12
2023-05-14T19:22:06.868Z,34.46
2023-05-14T19:24:37.658Z,34.63
2023-05-14T19:27:05.226Z,34.60
2023-05-14T19:29:36.566Z,34.70
2023-05-14T19:32:04.621Z,34.56
2023-05-14T19:34:31.573Z,34.85
2023-05-14T19:36:58.531Z,34.95
2023-05-14T19:39:25.455Z,35.12
2023-05-14T19:41:53.606Z,34.88
2023-05-14T19:44:20.772Z,35.04
2023-05-14T19:46:48.290Z,35.26
2023-05-14T19:49:15.172Z,35.48
2023-05-14T19:51:42.108Z,35.36
2023-05-14T19:54:09.857Z,35.51
2023-05-14T19:56:38.187Z,35.37
2023-05-14T19:59:06.798Z,35.08
2023-05-14T20:01:34.712Z,35.43
2023-05-14T20:04:02.222Z,35.75
2023-05-14T20:06:29.201Z,35.93
2023-05-14T20:08:56.201Z,36.00
2023-05-14T20:11:23.183Z,36.14
2023-05-14T20:13:50.321Z,36.14
2023-05-14T20:16:18.892Z,36.20
2023-05-14T20:18:46.015Z,36.65
2023-05-14T20:21:13.073Z,36.85
2023-05-14T20:23:41.883Z,36.60
2023-05-14T20:26:08.882Z,36.77
2023-05-14T20:28:35.752Z,36.70
2023-05-14T20:31:03.951Z,36.64
2023-05-14T20:33:32.304Z,36.72
2023-05-14T20:35:59.303Z,37.05
2023-05-14T20:38:29.114Z,36.54
2023-05-14T20:40:56.094Z,36.87
2023-05-14T20:43:23.193Z,37.13
2023-05-14T20:45:50.200Z,36.86
2023-05-14T20:48:17.544Z,36.89
2023-05-14T20:50:46.213Z,36.84
2023-05-14T20:53:13.174Z,36.77
2023-05-14T20:55:41.196Z,36.45
2023-05-14T20:58:08.554Z,36.67
2023-05-14T21:00:35.556Z,36.45
2023-05-14T21:03:02.717Z,36.63
2023-05-14T21:05:29.742Z,36.32
2023-05-14T21:07:59.734Z,36.79
2023-05-14T21:10:26.852Z,37.28
2023-05-14T21:12:53.980Z,37.38
2023-05-14T21:15:21.022Z,37.64
2023-05-14T21:17:47.976Z,37.17
2023-05-14T21:20:15.563Z,37.34
2023-05-14T21:22:42.546Z,37.24
2023-05-14T21:25:11.047Z,37.42
2023-05-14T21:27:38.082Z,37.20
2023-05-14T21:30:07.989Z,37.53
2023-05-14T21:32:34.990Z,37.65
2023-05-14T21:35:01.850Z,37.59
2023-05-14T21:37:28.894Z,37.71
2023-05-14T21:39:55.745Z,37.97
2023-05-14T21:42:24.023Z,38.05
2023-05-14T21:44:50.927Z,37.94
2023-05-14T21:47:18.011Z,38.35
2023-05-14T21:49:45.005Z,38.00
2023-05-14T21:52:11.911Z,38.13
2023-05-14T21:54:38.798Z,38.27
2023-05-14T21:57:06.371Z,37.82
2023-05-14T21:59:36.905Z,37.79
2023-05-14T22:02:07.256Z,38.19
2023-05-14T22:04:35.116Z,38.23
2023-05-14T22:07:02.356Z,38.47
2023-05-14T22:09:30.227Z,38.02
2023-05-14T22:11:57.306Z,38.04
2023-05-14T22:14:26.338Z,38.24
2023-05-14T22:16:54.686Z,38.19
2023-05-14T22:19:22.255Z,38.96
2023-05-14T22:21:49.114Z,38.78
2023-05-14T22:24:16.060Z,38.31
2023-05-14T22:26:42.956Z,38.97
2023-05-14T22:29:09.845Z,38.67
2023-05-14T22:31:36.859Z,38.96
2023-05-14T22:34:05.110Z,38.90
2023-05-14T22:36:31.987Z,38.72
2023-05-14T22:38:58.886Z,39.08
2023-05-14T22:41:26.608Z,39.36
2023-05-14T22:43:53.460Z,39.59
2023-05-14T22:46:21.028Z,39.65
2023-05-14T22:48:49.048Z,39.72
2023-05-14T22:51:17.766Z,39.48
2023-05-14T22:53:45.359Z,39.35
2023-05-14T22:56:12.325Z,39.75
2023-05-14T22:58:39.186Z,39.38
2023-05-14T23:01:06.121Z,39.93
2023-05-14T23:03:33.042Z,39.98
2023-05-14T23:05:59.931Z,40.42
2023-05-14T23:08:28.141Z,40.23
2023-05-14T23:10:54.981Z,39.94
2023-05-14T23:13:21.892Z,40.72
2023-05-14T23:15:48.832Z,40.73
2023-05-14T23:18:15.851Z,40.49
2023-05-14T23:20:42.747Z,41.16
2023-05-14T23:23:09.570Z,41.07
2023-05-14T23:25:38.063Z,40.69
2023-05-14T23:28:05.015Z,41.20
2023-05-14T23:30:31.970Z,41.17
2023-05-14T23:32:58.909Z,41.08
2023-05-14T23:35:26.064Z,41.48
2023-05-14T23:37:55.036Z,41.56
2023-05-14T23:40:21.941Z,41.75
2023-05-14T23:42:50.583Z,41.68
2023-05-14T23:45:17.858Z,41.75
2023-05-14T23:47:44.974Z,41.52
2023-05-14T23:50:11.925Z,42.04
2023-05-14T23:52:38.754Z,41.98
2023-05-14T23:55:06.793Z,41.50
2023-05-14T23:57:33.730Z,41.50
